Time;durP1;ratioP1;P1;durP2;ratioP2;P2;SDS_P1;SDS_P2;PMS_P1;PMS_P2;Temp;Humidity;BMP_temperature;BMP_pressure;BME280_temperature;BME280_humidity;BME280_pressure;Samples;Min_cycle;Max_cycle;Signal;HPM_P1;HPM_P2
2022/10/07 00:01:11;;;;;;;;;;;;;;;;;;5005616;28;19922;-67
2022/10/07 00:03:37;;;;;;;;;;;;;;;;;;5008084;28;19914;-67
2022/10/07 00:06:03;;;;;;;;;;;;;;;;;;5005677;28;19909;-67
2022/10/07 00:08:28;;;;;;;;;;;;;;;;;;5008625;28;20012;-67
2022/10/07 00:10:54;;;;;;;;;;;;;;;;;;5010721;28;19910;-66
2022/10/07 00:13:20;;;;;;;;;;;;;;;;;;5007985;28;19917;-67
2022/10/07 00:15:46;;;;;;;;;;;;;;;;;;5006460;28;20277;-68
2022/10/07 00:18:12;;;;;;;;;;;;;;;;;;5009614;28;19996;-66
2022/10/07 00:20:38;;;;;;;;;;;;;;;;;;5005627;28;19928;-67
2022/10/07 00:23:04;;;;;;;;;;;;;;;;;;5010701;28;19972;-68
2022/10/07 00:25:30;;;;;;;;;;;;;;;;;;5023660;28;19917;-67
2022/10/07 00:27:56;;;;;;;;;;;;;;;;;;5010241;28;19910;-66
2022/10/07 00:30:22;;;;;;;;;;;;;;;;;;5006434;28;19914;-67
2022/10/07 00:32:48;;;;;;;;;;;;;;;;;;5009183;28;19909;-68
2022/10/07 00:35:13;;;;;;;;;;;;;;;;;;5004248;28;19910;-67
2022/10/07 00:37:41;;;;;;;;;;;;;;;;;;5005115;28;20290;-68
2022/10/07 00:40:07;;;;;;;;;;;;;;;;;;5013420;28;19924;-66
2022/10/07 00:42:34;;;;;;;;;;;;;;;;;;5010745;28;19909;-65
2022/10/07 00:45:00;;;;;;;;;;;;;;;;;;5011157;28;19910;-67
2022/10/07 00:47:26;;;;;;;;;;;;;;;;;;5011415;28;19910;-66
2022/10/07 00:49:52;;;;;;;;;;;;;;;;;;5011239;28;19910;-67
2022/10/07 00:52:19;;;;;;;;;;;;;;;;;;5011968;28;19909;-66
2022/10/07 00:54:45;;;;;;;;;;;;;;;;;;5030426;28;20410;-65
2022/10/07 00:57:10;;;;;;;;;;;;;;;;;;5029280;28;19960;-67
2022/10/07 00:59:38;;;;;;;;;;;;;;;;;;5030139;28;19967;-67
2022/10/07 01:02:04;;;;;;;;;;;;;;;;;;5030463;28;19913;-67
2022/10/07 01:04:30;;;;;;;;;;;;;;;;;;5018747;28;20083;-66
2022/10/07 01:06:56;;;;;;;;;;;;;;;;;;5011614;28;19972;-65
2022/10/07 01:09:22;;;;;;;;;;;;;;;;;;5011770;28;20285;-66
2022/10/07 01:11:48;;;;;;;;;;;;;;;;;;5011353;28;19909;-66
2022/10/07 01:14:14;;;;;;;;;;;;;;;;;;5011083;28;19909;-66
2022/10/07 01:16:40;;;;;;;;;;;;;;;;;;5010167;28;19910;-67
2022/10/07 01:19:06;;;;;;;;;;;;;;;;;;5011991;28;19939;-66
2022/10/07 01:21:32;;;;;;;;;;;;;;;;;;5011110;28;19914;-66
2022/10/07 01:23:57;;;;;;;;;;;;;;;;;;5011348;28;20008;-66
2022/10/07 01:26:23;;;;;;;;;;;;;;;;;;5011824;28;19963;-66
2022/10/07 01:28:49;;;;;;;;;;;;;;;;;;5010859;28;19909;-65
2022/10/07 01:31:15;;;;;;;;;;;;;;;;;;5011072;28;20362;-66
2022/10/07 01:33:42;;;;;;;;;;;;;;;;;;5012819;28;19910;-66
2022/10/07 01:36:08;;;;;;;;;;;;;;;;;;5014320;28;20287;-65
2022/10/07 01:38:34;;;;;;;;;;;;;;;;;;5016363;28;19917;-66
2022/10/07 01:40:59;;;;;;;;;;;;;;;;;;5025222;28;19925;-65
2022/10/07 01:43:27;;;;;;;;;;;;;;;;;;5014113;28;20213;-64
2022/10/07 01:45:53;;;;;;;;;;;;;;;;;;5013624;28;20341;-65
2022/10/07 01:48:19;;;;;;;;;;;;;;;;;;5028173;28;20000;-66
2022/10/07 01:50:45;;;;;;;;;;;;;;;;;;5033690;28;19909;-66
2022/10/07 01:53:11;;;;;;;;;;;;;;;;;;5033628;28;19916;-65
2022/10/07 01:55:37;;;;;;;;;;;;;;;;;;5033071;28;19913;-66
2022/10/07 01:58:05;;;;;;;;;;;;;;;;;;5033419;28;20290;-66
2022/10/07 02:00:30;;;;;;;;;;;;;;;;;;5033164;28;19945;-68
2022/10/07 02:02:56;;;;;;;;;;;;;;;;;;5033666;28;20362;-67
2022/10/07 02:05:22;;;;;;;;;;;;;;;;;;5033102;28;19921;-67
2022/10/07 02:07:50;;;;;;;;;;;;;;;;;;5033109;28;20393;-67
2022/10/07 02:10:16;;;;;;;;;;;;;;;;;;5032998;28;19955;-65
2022/10/07 02:12:41;;;;;;;;;;;;;;;;;;5033512;28;19913;-67
2022/10/07 02:15:07;;;;;;;;;;;;;;;;;;5021894;28;19909;-67
2022/10/07 02:17:34;;;;;;;;;;;;;;;;;;5014304;28;19909;-67
2022/10/07 02:19:59;;;;;;;;;;;;;;;;;;5031510;28;19914;-66
2022/10/07 02:22:25;;;;;;;;;;;;;;;;;;5033123;28;19916;-67
2022/10/07 02:24:53;;;;;;;;;;;;;;;;;;5032496;28;20405;-64
2022/10/07 02:27:19;;;;;;;;;;;;;;;;;;5014119;28;19942;-68
2022/10/07 02:29:45;;;;;;;;;;;;;;;;;;5012031;28;20151;-66
2022/10/07 02:32:11;;;;;;;;;;;;;;;;;;5012820;28;20378;-64
2022/10/07 02:34:37;;;;;;;;;;;;;;;;;;5008881;28;19914;-67
2022/10/07 02:37:03;;;;;;;;;;;;;;;;;;5009483;28;20401;-66
2022/10/07 02:39:29;;;;;;;;;;;;;;;;;;5012954;28;19918;-67
2022/10/07 02:41:55;;;;;;;;;;;;;;;;;;5015838;28;20032;-66
2022/10/07 02:44:24;;;;;;;;;;;;;;;;;;5019555;28;19913;-66
2022/10/07 02:46:50;;;;;;;;;;;;;;;;;;5005893;28;19920;-68
2022/10/07 02:49:17;;;;;;;;;;;;;;;;;;5008471;28;19910;-67
2022/10/07 02:51:43;;;;;;;;;;;;;;;;;;5008150;28;19917;-66
2022/10/07 02:54:08;;;;;;;;;;;;;;;;;;5011691;28;19909;-65
2022/10/07 02:56:35;;;;;;;;;;;;;;;;;;5005610;28;19913;-66
2022/10/07 02:59:01;;;;;;;;;;;;;;;;;;5009883;28;19955;-64
2022/10/07 03:01:27;;;;;;;;;;;;;;;;;;5009457;28;19922;-67
2022/10/07 03:03:54;;;;;;;;;;;;;;;;;;5012003;28;20343;-65
2022/10/07 03:06:19;;;;;;;;;;;;;;;;;;5008047;28;20378;-66
2022/10/07 03:08:46;;;;;;;;;;;;;;;;;;5010551;28;19919;-66
2022/10/07 03:11:12;;;;;;;;;;;;;;;;;;5016480;28;19913;-66
2022/10/07 03:13:38;;;;;;;;;;;;;;;;;;5019577;28;20259;-66
2022/10/07 03:16:04;;;;;;;;;;;;;;;;;;5021404;28;19914;-66
2022/10/07 03:18:30;;;;;;;;;;;;;;;;;;5012041;28;19913;-66
2022/10/07 03:20:56;;;;;;;;;;;;;;;;;;5012099;28;19929;-65
2022/10/07 03:23:22;;;;;;;;;;;;;;;;;;5007067;28;19950;-66
2022/10/07 03:25:48;;;;;;;;;;;;;;;;;;5009839;28;19916;-65
2022/10/07 03:28:14;;;;;;;;;;;;;;;;;;5006174;28;19913;-65
2022/10/07 03:30:39;;;;;;;;;;;;;;;;;;5009282;28;20495;-67
2022/10/07 03:33:05;;;;;;;;;;;;;;;;;;5008747;28;19924;-65
2022/10/07 03:35:31;;;;;;;;;;;;;;;;;;5009853;28;20012;-64
2022/10/07 03:37:57;;;;;;;;;;;;;;;;;;5007166;28;19914;-66
2022/10/07 03:40:23;;;;;;;;;;;;;;;;;;5015471;28;19968;-66
2022/10/07 03:42:49;;;;;;;;;;;;;;;;;;5006037;28;20363;-66
2022/10/07 03:45:15;;;;;;;;;;;;;;;;;;5009554;28;19909;-66
2022/10/07 03:47:41;;;;;;;;;;;;;;;;;;5008241;28;20036;-67
2022/10/07 03:50:07;;;;;;;;;;;;;;;;;;5004731;28;19927;-67
2022/10/07 03:52:35;;;;;;;;;;;;;;;;;;5007273;28;20334;-67
2022/10/07 03:55:01;;;;;;;;;;;;;;;;;;5008272;28;19916;-68
2022/10/07 04:00:11;;;;;;;;;;;;;;;;;;5016808;28;19964;-68
2022/10/07 04:02:37;;;;;;;;;;;;;;;;;;5015815;28;19918;-67
2022/10/07 04:05:03;;;;;;;;;;;;;;;;;;5008722;28;19916;-66
2022/10/07 04:07:29;;;;;;;;;;;;;;;;;;5007976;28;19952;-67
2022/10/07 04:09:55;;;;;;;;;;;;;;;;;;5006789;28;19913;-67
2022/10/07 04:12:21;;;;;;;;;;;;;;;;;;5009417;28;19913;-65
2022/10/07 04:14:47;;;;;;;;;;;;;;;;;;5005670;28;19913;-67
2022/10/07 04:17:13;;;;;;;;;;;;;;;;;;5011445;28;19992;-68
2022/10/07 04:19:39;;;;;;;;;;;;;;;;;;5023451;28;20370;-67
2022/10/07 04:22:05;;;;;;;;;;;;;;;;;;5015958;28;19914;-67
2022/10/07 04:24:31;;;;;;;;;;;;;;;;;;5014207;28;19928;-67
2022/10/07 04:26:57;;;;;;;;;;;;;;;;;;5011391;28;19924;-65
2022/10/07 04:29:22;;;;;;;;;;;;;;;;;;5005666;28;19948;-65
2022/10/07 04:31:48;;;;;;;;;;;;;;;;;;5011072;28;19999;-66
2022/10/07 04:34:14;;;;;;;;;;;;;;;;;;5007269;28;19910;-67
2022/10/07 04:36:40;;;;;;;;;;;;;;;;;;5010413;28;20353;-67
2022/10/07 04:39:06;;;;;;;;;;;;;;;;;;5010747;28;19953;-66
2022/10/07 04:41:32;;;;;;;;;;;;;;;;;;5004865;28;20013;-67
2022/10/07 04:43:58;;;;;;;;;;;;;;;;;;5008700;28;19920;-66
2022/10/07 04:46:24;;;;;;;;;;;;;;;;;;5013949;28;19972;-67
2022/10/07 04:48:49;;;;;;;;;;;;;;;;;;5007060;28;19952;-66
2022/10/07 04:51:15;;;;;;;;;;;;;;;;;;5006978;28;19910;-67
2022/10/07 04:53:42;;;;;;;;;;;;;;;;;;5003565;28;19910;-66
2022/10/07 04:56:10;;;;;;;;;;;;;;;;;;5010727;28;19913;-65
2022/10/07 04:58:35;;;;;;;;;;;;;;;;;;5015301;28;19944;-65
2022/10/07 05:01:01;;;;;;;;;;;;;;;;;;5003119;28;19965;-66
2022/10/07 05:03:27;;;;;;;;;;;;;;;;;;5009323;28;20380;-66
2022/10/07 05:05:53;;;;;;;;;;;;;;;;;;5006591;28;19917;-67
2022/10/07 05:08:19;;;;;;;;;;;;;;;;;;5010601;28;20024;-66
2022/10/07 05:10:45;;;;;;;;;;;;;;;;;;5020537;28;19936;-66
2022/10/07 05:13:11;;;;;;;;;;;;;;;;;;5011081;28;20267;-66
2022/10/07 05:15:37;;;;;;;;;;;;;;;;;;5009457;28;20449;-66
2022/10/07 05:18:05;;;;;;;;;;;;;;;;;;5024503;28;19916;-66
2022/10/07 05:20:31;;;;;;;;;;;;;;;;;;5019003;28;19924;-65
2022/10/07 05:22:57;;;;;;;;;;;;;;;;;;5012323;28;19910;-66
2022/10/07 05:25:23;;;;;;;;;;;;;;;;;;5006544;28;19996;-66
2022/10/07 05:27:50;;;;;;;;;;;;;;;;;;5009006;28;19914;-66
2022/10/07 05:30:16;;;;;;;;;;;;;;;;;;5012155;28;19921;-66
2022/10/07 05:32:42;;;;;;;;;;;;;;;;;;5022376;28;19909;-65
2022/10/07 05:35:08;;;;;;;;;;;;;;;;;;5015045;28;20315;-65
2022/10/07 05:37:34;;;;;;;;;;;;;;;;;;5008578;28;19919;-64
2022/10/07 05:40:00;;;;;;;;;;;;;;;;;;5011854;28;19921;-64
2022/10/07 05:42:26;;;;;;;;;;;;;;;;;;5009188;28;19913;-63
2022/10/07 05:44:52;;;;;;;;;;;;;;;;;;5010215;28;20374;-64
2022/10/07 05:47:19;;;;;;;;;;;;;;;;;;5009449;28;19921;-67
2022/10/07 05:49:44;;;;;;;;;;;;;;;;;;5008845;28;19956;-68
2022/10/07 05:52:10;;;;;;;;;;;;;;;;;;5009656;28;19913;-67
2022/10/07 05:54:37;;;;;;;;;;;;;;;;;;5008614;28;20008;-67
2022/10/07 05:57:03;;;;;;;;;;;;;;;;;;5007096;28;19913;-67
2022/10/07 05:59:28;;;;;;;;;;;;;;;;;;5010970;28;20410;-65
2022/10/07 06:01:58;;;;;;;;;;;;;;;;;;5007684;28;19959;-66
2022/10/07 06:04:25;;;;;;;;;;;;;;;;;;5005932;28;19910;-66
2022/10/07 06:06:51;;;;;;;;;;;;;;;;;;5009875;28;19947;-65
2022/10/07 06:14:46;;;;;;;;;;;;;;;;;;5007989;28;19917;-64
2022/10/07 06:17:12;;;;;;;;;;;;;;;;;;5007247;28;19909;-65
2022/10/07 06:19:38;;;;;;;;;;;;;;;;;;5006947;28;19920;-65
2022/10/07 06:22:04;;;;;;;;;;;;;;;;;;5012775;28;20382;-62
2022/10/07 06:24:32;;;;;;;;;;;;;;;;;;5001961;28;19917;-66
2022/10/07 06:26:58;;;;;;;;;;;;;;;;;;5008626;28;19918;-65
2022/10/07 06:29:24;;;;;;;;;;;;;;;;;;5021809;28;19939;-66
2022/10/07 06:31:50;;;;;;;;;;;;;;;;;;5018128;28;20285;-65
2022/10/07 06:34:17;;;;;;;;;;;;;;;;;;5008852;28;19920;-64
2022/10/07 06:36:42;;;;;;;;;;;;;;;;;;5026284;28;20003;-64
2022/10/07 06:39:08;;;;;;;;;;;;;;;;;;5011126;28;19937;-65
2022/10/07 06:41:34;;;;;;;;;;;;;;;;;;5019461;28;19917;-66
2022/10/07 06:44:00;;;;;;;;;;;;;;;;;;5016504;28;20363;-66
2022/10/07 06:46:26;;;;;;;;;;;;;;;;;;5013298;28;19917;-66
2022/10/07 06:48:52;;;;;;;;;;;;;;;;;;5008905;28;19910;-65
2022/10/07 06:51:18;;;;;;;;;;;;;;;;;;5010360;28;19918;-64
2022/10/07 06:53:44;;;;;;;;;;;;;;;;;;5018333;28;19937;-62
2022/10/07 06:56:10;;;;;;;;;;;;;;;;;;5006916;28;19952;-64
2022/10/07 06:58:36;;;;;;;;;;;;;;;;;;5010365;28;19916;-66
2022/10/07 07:01:02;;;;;;;;;;;;;;;;;;5008980;28;19922;-64
2022/10/07 07:03:28;;;;;;;;;;;;;;;;;;5021088;28;19910;-66
2022/10/07 07:05:54;;;;;;;;;;;;;;;;;;5008123;28;19909;-63
2022/10/07 07:08:20;;;;;;;;;;;;;;;;;;5010387;28;19909;-63
2022/10/07 07:10:45;;;;;;;;;;;;;;;;;;5011947;28;19963;-65
2022/10/07 07:13:11;;;;;;;;;;;;;;;;;;5007903;28;19909;-64
2022/10/07 07:15:37;;;;;;;;;;;;;;;;;;5007697;28;19917;-65
2022/10/07 07:18:03;;;;;;;;;;;;;;;;;;5011349;28;19918;-65
2022/10/07 07:20:34;;;;;;;;;;;;;;;;;;5011007;28;19929;-65
2022/10/07 07:23:00;;;;;;;;;;;;;;;;;;5012951;28;19910;-64
2022/10/07 07:25:26;;;;;;;;;;;;;;;;;;5008313;28;19918;-63
2022/10/07 07:27:53;;;;;;;;;;;;;;;;;;5006420;28;19996;-63
2022/10/07 07:30:22;;;;;;;;;;;;;;;;;;5009135;28;19909;-64
2022/10/07 07:32:47;;;;;;;;;;;;;;;;;;5005115;28;20036;-64
2022/10/07 07:35:13;;;;;;;;;;;;;;;;;;5010812;28;20386;-64
2022/10/07 07:37:39;;;;;;;;;;;;;;;;;;5006582;28;19913;-64
2022/10/07 07:40:05;;;;;;;;;;;;;;;;;;5010581;28;19917;-65
2022/10/07 07:42:31;;;;;;;;;;;;;;;;;;5006379;28;20013;-65
2022/10/07 07:44:57;;;;;;;;;;;;;;;;;;5006224;28;19913;-62
2022/10/07 07:47:23;;;;;;;;;;;;;;;;;;5011581;28;19913;-65
2022/10/07 07:49:49;;;;;;;;;;;;;;;;;;5010566;28;20382;-64
2022/10/07 07:52:15;;;;;;;;;;;;;;;;;;5010946;28;20342;-65
2022/10/07 07:54:41;;;;;;;;;;;;;;;;;;5008455;28;19956;-64
2022/10/07 07:57:07;;;;;;;;;;;;;;;;;;5027741;28;19921;-65
2022/10/07 07:59:33;;;;;;;;;;;;;;;;;;5010824;28;19916;-63
2022/10/07 08:01:59;;;;;;;;;;;;;;;;;;5007452;28;19953;-64
2022/10/07 08:04:25;;;;;;;;;;;;;;;;;;5004032;28;19925;-66
2022/10/07 08:06:50;;;;;;;;;;;;;;;;;;5011282;28;20370;-65
2022/10/07 08:09:16;;;;;;;;;;;;;;;;;;5010828;28;19955;-64
2022/10/07 08:11:45;;;;;;;;;;;;;;;;;;5010207;28;19910;-66
2022/10/07 08:14:11;;;;;;;;;;;;;;;;;;5004220;28;19963;-65
2022/10/07 08:16:37;;;;;;;;;;;;;;;;;;5006919;28;19917;-65
2022/10/07 08:19:03;;;;;;;;;;;;;;;;;;5008892;28;19917;-64
2022/10/07 08:21:32;;;;;;;;;;;;;;;;;;5003803;28;19925;-64
2022/10/07 08:23:58;;;;;;;;;;;;;;;;;;5018176;28;19909;-64
2022/10/07 08:26:23;;;;;;;;;;;;;;;;;;5007963;28;19916;-64
2022/10/07 08:28:49;;;;;;;;;;;;;;;;;;5011148;28;19913;-66
2022/10/07 08:31:16;;;;;;;;;;;;;;;;;;5015281;28;19920;-66
2022/10/07 08:33:43;;;;;;;;;;;;;;;;;;5018963;28;19913;-63
2022/10/07 08:36:09;;;;;;;;;;;;;;;;;;5014886;28;19921;-65
2022/10/07 08:38:35;;;;;;;;;;;;;;;;;;5014089;28;19921;-64
2022/10/07 08:41:04;;;;;;;;;;;;;;;;;;5008350;28;20362;-65
2022/10/07 08:43:30;;;;;;;;;;;;;;;;;;5010604;28;20313;-65
2022/10/07 08:45:56;;;;;;;;;;;;;;;;;;5017156;28;19919;-64
2022/10/07 08:48:21;;;;;;;;;;;;;;;;;;5033754;28;19956;-66
2022/10/07 08:50:47;;;;;;;;;;;;;;;;;;5029403;28;20321;-65
2022/10/07 08:53:13;;;;;;;;;;;;;;;;;;5009055;28;19967;-66
2022/10/07 08:55:39;;;;;;;;;;;;;;;;;;5014320;28;20322;-65
2022/10/07 08:58:06;;;;;;;;;;;;;;;;;;5012397;28;19949;-64
2022/10/07 09:00:31;;;;;;;;;;;;;;;;;;5009264;28;19983;-66
2022/10/07 09:02:57;;;;;;;;;;;;;;;;;;5011046;28;19914;-66
2022/10/07 09:05:23;;;;;;;;;;;;;;;;;;5007588;28;19953;-65
2022/10/07 09:07:49;;;;;;;;;;;;;;;;;;5007658;28;20326;-65
2022/10/07 09:10:15;;;;;;;;;;;;;;;;;;5010763;28;19917;-64
2022/10/07 09:12:41;;;;;;;;;;;;;;;;;;5013366;28;20477;-63
2022/10/07 09:15:07;;;;;;;;;;;;;;;;;;5009457;28;19971;-64
2022/10/07 09:17:33;;;;;;;;;;;;;;;;;;5008706;28;20385;-65
2022/10/07 09:19:58;;;;;;;;;;;;;;;;;;5016604;28;20000;-65
2022/10/07 09:22:24;;;;;;;;;;;;;;;;;;5008582;28;19918;-64
2022/10/07 09:24:50;;;;;;;;;;;;;;;;;;5010265;28;19917;-65
2022/10/07 09:27:16;;;;;;;;;;;;;;;;;;5009444;28;19963;-64
2022/10/07 09:29:42;;;;;;;;;;;;;;;;;;5012208;28;19917;-66
2022/10/07 09:32:08;;;;;;;;;;;;;;;;;;5008763;28;19909;-65
2022/10/07 09:34:34;;;;;;;;;;;;;;;;;;5011876;28;20315;-65
2022/10/07 09:37:00;;;;;;;;;;;;;;;;;;5005929;28;19922;-64
2022/10/07 09:39:26;;;;;;;;;;;;;;;;;;5011763;28;20298;-65
2022/10/07 09:41:52;;;;;;;;;;;;;;;;;;5021958;28;19913;-67
2022/10/07 09:44:18;;;;;;;;;;;;;;;;;;5012338;28;19913;-64
2022/10/07 09:46:47;;;;;;;;;;;;;;;;;;5008894;28;19916;-66
2022/10/07 09:49:13;;;;;;;;;;;;;;;;;;5023574;28;19910;-66
2022/10/07 09:51:38;;;;;;;;;;;;;;;;;;5008979;28;19909;-64
2022/10/07 09:54:04;;;;;;;;;;;;;;;;;;5011178;28;19948;-65
2022/10/07 09:56:30;;;;;;;;;;;;;;;;;;5011732;28;19913;-65
2022/10/07 09:58:56;;;;;;;;;;;;;;;;;;5013568;28;20004;-66
2022/10/07 10:01:22;;;;;;;;;;;;;;;;;;5008743;28;20405;-65
2022/10/07 10:03:48;;;;;;;;;;;;;;;;;;5007767;28;19918;-65
2022/10/07 10:06:14;;;;;;;;;;;;;;;;;;5016575;28;19913;-64
2022/10/07 10:08:40;;;;;;;;;;;;;;;;;;5005431;28;19928;-64
2022/10/07 10:11:06;;;;;;;;;;;;;;;;;;5009295;28;20444;-67
2022/10/07 10:13:32;;;;;;;;;;;;;;;;;;5009342;28;19917;-64
2022/10/07 10:15:58;;;;;;;;;;;;;;;;;;5012901;28;20356;-64
2022/10/07 10:18:23;;;;;;;;;;;;;;;;;;5009000;28;19932;-65
2022/10/07 10:20:49;;;;;;;;;;;;;;;;;;5006739;28;19940;-65
2022/10/07 10:23:15;;;;;;;;;;;;;;;;;;5004846;28;19968;-63
2022/10/07 10:28:26;;;;;;;;;;;;;;;;;;5008722;28;19924;-63
2022/10/07 10:30:52;;;;;;;;;;;;;;;;;;5010813;28;20020;-63
2022/10/07 10:33:18;;;;;;;;;;;;;;;;;;5007095;28;20008;-65
2022/10/07 10:35:44;;;;;;;;;;;;;;;;;;5011759;28;19924;-65
2022/10/07 10:38:10;;;;;;;;;;;;;;;;;;5009510;28;20455;-66
2022/10/07 10:40:35;;;;;;;;;;;;;;;;;;5010337;28;20478;-63
2022/10/07 10:43:01;;;;;;;;;;;;;;;;;;5008534;28;19988;-63
2022/10/07 10:45:27;;;;;;;;;;;;;;;;;;5004567;28;19913;-64
2022/10/07 10:47:53;;;;;;;;;;;;;;;;;;5010912;28;19909;-65
2022/10/07 10:50:20;;;;;;;;;;;;;;;;;;5006639;28;19918;-64
2022/10/07 10:52:48;;;;;;;;;;;;;;;;;;5008865;28;20458;-66
2022/10/07 10:55:14;;;;;;;;;;;;;;;;;;5007779;28;19910;-63
2022/10/07 10:57:40;;;;;;;;;;;;;;;;;;5011804;28;19918;-63
2022/10/07 11:00:06;;;;;;;;;;;;;;;;;;5008106;28;19925;-63
2022/10/07 11:02:32;;;;;;;;;;;;;;;;;;5007979;28;20398;-66
2022/10/07 11:04:58;;;;;;;;;;;;;;;;;;5011464;28;19909;-64
2022/10/07 11:07:24;;;;;;;;;;;;;;;;;;5005098;28;19909;-64
2022/10/07 11:09:50;;;;;;;;;;;;;;;;;;5008568;28;20607;-64
2022/10/07 11:12:16;;;;;;;;;;;;;;;;;;5016334;28;20374;-63
2022/10/07 11:14:44;;;;;;;;;;;;;;;;;;5019191;28;20004;-64
2022/10/07 11:17:10;;;;;;;;;;;;;;;;;;5003554;28;19992;-65
2022/10/07 11:19:36;;;;;;;;;;;;;;;;;;5005746;28;19914;-65
2022/10/07 11:22:02;;;;;;;;;;;;;;;;;;5005596;28;19918;-65
2022/10/07 11:24:28;;;;;;;;;;;;;;;;;;5009334;28;19913;-63
2022/10/07 11:26:56;;;;;;;;;;;;;;;;;;5011959;28;19914;-66
2022/10/07 11:29:22;;;;;;;;;;;;;;;;;;5008385;28;20378;-62
2022/10/07 11:31:48;;;;;;;;;;;;;;;;;;5005855;28;19925;-63
2022/10/07 11:34:14;;;;;;;;;;;;;;;;;;5008411;28;19916;-65
2022/10/07 11:36:40;;;;;;;;;;;;;;;;;;5006844;28;20341;-64
2022/10/07 11:39:06;;;;;;;;;;;;;;;;;;5007669;28;20398;-64
2022/10/07 11:41:32;;;;;;;;;;;;;;;;;;5008455;28;19928;-63
2022/10/07 11:43:57;;;;;;;;;;;;;;;;;;5004740;28;20004;-65
2022/10/07 11:46:23;;;;;;;;;;;;;;;;;;5010085;28;19909;-63
2022/10/07 11:48:49;;;;;;;;;;;;;;;;;;5009276;28;19909;-63
2022/10/07 11:51:16;;;;;;;;;;;;;;;;;;5005691;28;19983;-65
2022/10/07 11:53:42;;;;;;;;;;;;;;;;;;5010006;28;19913;-64
2022/10/07 11:56:09;;;;;;;;;;;;;;;;;;5006049;28;19914;-64
2022/10/07 11:58:35;;;;;;;;;;;;;;;;;;5002165;28;19956;-64
2022/10/07 12:01:02;;;;;;;;;;;;;;;;;;5008462;28;19952;-63
2022/10/07 12:03:28;;;;;;;;;;;;;;;;;;5005344;28;20266;-63
2022/10/07 12:05:54;;;;;;;;;;;;;;;;;;5008655;28;19910;-64
2022/10/07 12:08:20;;;;;;;;;;;;;;;;;;5005086;28;20374;-64
2022/10/07 12:10:46;;;;;;;;;;;;;;;;;;5008081;28;19909;-64
2022/10/07 12:13:12;;;;;;;;;;;;;;;;;;5001356;28;19924;-64
2022/10/07 12:15:38;;;;;;;;;;;;;;;;;;5010412;28;20373;-64
2022/10/07 12:18:04;;;;;;;;;;;;;;;;;;4999924;28;19936;-64
2022/10/07 12:20:30;;;;;;;;;;;;;;;;;;5009437;28;20390;-63
2022/10/07 12:22:56;;;;;;;;;;;;;;;;;;5009361;28;19909;-64
2022/10/07 12:25:22;;;;;;;;;;;;;;;;;;5010059;28;19964;-63
2022/10/07 12:27:48;;;;;;;;;;;;;;;;;;5010344;28;19963;-64
2022/10/07 12:30:14;;;;;;;;;;;;;;;;;;5010397;28;19909;-63
2022/10/07 12:32:39;;;;;;;;;;;;;;;;;;5009896;28;19914;-64
2022/10/07 12:35:05;;;;;;;;;;;;;;;;;;5009604;28;19960;-62
2022/10/07 12:37:31;;;;;;;;;;;;;;;;;;5002745;28;19921;-63
2022/10/07 12:39:57;;;;;;;;;;;;;;;;;;5007084;28;20004;-63
2022/10/07 12:42:23;;;;;;;;;;;;;;;;;;5005696;28;20028;-63
2022/10/07 12:44:51;;;;;;;;;;;;;;;;;;5007515;28;19936;-64
2022/10/07 12:47:17;;;;;;;;;;;;;;;;;;5006014;28;19913;-63
2022/10/07 12:49:43;;;;;;;;;;;;;;;;;;5005111;28;19906;-64
2022/10/07 12:52:10;;;;;;;;;;;;;;;;;;5002752;28;20379;-63
2022/10/07 12:54:36;;;;;;;;;;;;;;;;;;5004865;28;19910;-63
2022/10/07 12:57:02;;;;;;;;;;;;;;;;;;5005804;28;19988;-65
2022/10/07 12:59:47;;;;;;;;;;;;;;;;;;5008267;28;19917;-64
2022/10/07 13:02:13;;;;;;;;;;;;;;;;;;5012623;28;19980;-62
2022/10/07 13:04:39;;;;;;;;;;;;;;;;;;5005630;28;19918;-63
2022/10/07 13:07:05;;;;;;;;;;;;;;;;;;5006889;28;20141;-64
2022/10/07 13:09:31;;;;;;;;;;;;;;;;;;5005643;28;19971;-63
2022/10/07 13:11:58;;;;;;;;;;;;;;;;;;5004161;28;19917;-63
2022/10/07 13:14:24;;;;;;;;;;;;;;;;;;5006815;28;20404;-65
2022/10/07 13:16:50;;;;;;;;;;;;;;;;;;5007755;28;20052;-63
2022/10/07 13:19:16;;;;;;;;;;;;;;;;;;5005603;28;19909;-63
2022/10/07 13:21:42;;;;;;;;;;;;;;;;;;5004886;28;19917;-64
2022/10/07 13:24:08;;;;;;;;;;;;;;;;;;5008274;28;19913;-64
2022/10/07 13:26:34;;;;;;;;;;;;;;;;;;5004684;28;19909;-65
2022/10/07 13:28:59;;;;;;;;;;;;;;;;;;5005651;28;19916;-64
2022/10/07 13:31:25;;;;;;;;;;;;;;;;;;5005244;28;19913;-61
2022/10/07 13:33:51;;;;;;;;;;;;;;;;;;5012928;28;20406;-64
2022/10/07 13:36:17;;;;;;;;;;;;;;;;;;5009456;28;19997;-61
2022/10/07 13:38:45;;;;;;;;;;;;;;;;;;5012913;28;19921;-62
2022/10/07 13:41:10;;;;;;;;;;;;;;;;;;5010605;28;20004;-64
2022/10/07 13:43:37;;;;;;;;;;;;;;;;;;5007739;28;20000;-62
2022/10/07 13:46:04;;;;;;;;;;;;;;;;;;5009547;28;19945;-64
2022/10/07 13:48:33;;;;;;;;;;;;;;;;;;5025858;28;19910;-63
2022/10/07 13:50:59;;;;;;;;;;;;;;;;;;5013713;28;19909;-63
2022/10/07 13:53:24;;;;;;;;;;;;;;;;;;5008056;28;20028;-63
2022/10/07 13:55:50;;;;;;;;;;;;;;;;;;5010709;28;19920;-64
2022/10/07 13:58:17;;;;;;;;;;;;;;;;;;5007440;28;19985;-63
2022/10/07 14:00:43;;;;;;;;;;;;;;;;;;5015419;28;19921;-65
2022/10/07 14:03:09;;;;;;;;;;;;;;;;;;5003666;28;19917;-62
2022/10/07 14:05:35;;;;;;;;;;;;;;;;;;5011823;28;19910;-64
2022/10/07 14:08:01;;;;;;;;;;;;;;;;;;5012526;28;19924;-65
2022/10/07 14:10:27;;;;;;;;;;;;;;;;;;5012388;28;19913;-66
2022/10/07 14:12:52;;;;;;;;;;;;;;;;;;5012849;28;20318;-63
2022/10/07 14:15:18;;;;;;;;;;;;;;;;;;5008287;28;19921;-63
2022/10/07 14:17:46;;;;;;;;;;;;;;;;;;5007970;28;20008;-65
2022/10/07 14:20:12;;;;;;;;;;;;;;;;;;5012640;28;20414;-61
2022/10/07 14:22:38;;;;;;;;;;;;;;;;;;5007201;28;20004;-64
2022/10/07 14:25:03;;;;;;;;;;;;;;;;;;5009359;28;19981;-63
2022/10/07 14:27:29;;;;;;;;;;;;;;;;;;5008348;28;19917;-64
2022/10/07 14:29:57;;;;;;;;;;;;;;;;;;5006567;28;19921;-63
2022/10/07 14:35:20;;;;;;;;;;;;;;;;;;5007792;28;19982;-63
2022/10/07 14:37:46;;;;;;;;;;;;;;;;;;5007571;28;20353;-63
2022/10/07 14:40:12;;;;;;;;;;;;;;;;;;5006794;28;19918;-65
2022/10/07 14:42:38;;;;;;;;;;;;;;;;;;5005702;28;20303;-63
2022/10/07 14:45:04;;;;;;;;;;;;;;;;;;5009349;28;19909;-63
2022/10/07 14:47:30;;;;;;;;;;;;;;;;;;5011887;28;19959;-64
2022/10/07 14:49:56;;;;;;;;;;;;;;;;;;5008294;28;19909;-64
2022/10/07 14:52:22;;;;;;;;;;;;;;;;;;5011657;28;19914;-62
2022/10/07 14:54:49;;;;;;;;;;;;;;;;;;5007593;28;19916;-65
2022/10/07 14:57:15;;;;;;;;;;;;;;;;;;5003941;28;20398;-62
2022/10/07 14:59:41;;;;;;;;;;;;;;;;;;5005327;28;19909;-63
2022/10/07 15:02:07;;;;;;;;;;;;;;;;;;5004534;28;19918;-62
2022/10/07 15:04:32;;;;;;;;;;;;;;;;;;5007997;28;20394;-63
2022/10/07 15:06:58;;;;;;;;;;;;;;;;;;5008074;28;20004;-63
2022/10/07 15:09:24;;;;;;;;;;;;;;;;;;5022317;28;20409;-64
2022/10/07 15:11:50;;;;;;;;;;;;;;;;;;5008798;28;19917;-64
2022/10/07 15:14:16;;;;;;;;;;;;;;;;;;5011413;28;19964;-62
2022/10/07 15:16:42;;;;;;;;;;;;;;;;;;5011723;28;20013;-63
2022/10/07 15:19:08;;;;;;;;;;;;;;;;;;5012982;28;19918;-62
2022/10/07 15:21:34;;;;;;;;;;;;;;;;;;5011084;28;19921;-63
2022/10/07 15:24:00;;;;;;;;;;;;;;;;;;5011224;28;19913;-63
2022/10/07 15:26:26;;;;;;;;;;;;;;;;;;5012748;28;19949;-64
2022/10/07 15:28:53;;;;;;;;;;;;;;;;;;5013327;28;19957;-66
2022/10/07 15:31:20;;;;;;;;;;;;;;;;;;5030099;28;19939;-65
2022/10/07 15:33:45;;;;;;;;;;;;;;;;;;5030501;28;19909;-62
2022/10/07 15:36:14;;;;;;;;;;;;;;;;;;5019989;28;19925;-62
2022/10/07 15:38:40;;;;;;;;;;;;;;;;;;5017176;28;19913;-63
2022/10/07 15:41:06;;;;;;;;;;;;;;;;;;5010846;28;19988;-66
2022/10/07 15:43:32;;;;;;;;;;;;;;;;;;5010659;28;20016;-64
2022/10/07 15:46:00;;;;;;;;;;;;;;;;;;5010857;28;19956;-64
2022/10/07 15:48:27;;;;;;;;;;;;;;;;;;5013780;28;20012;-65
2022/10/07 15:50:53;;;;;;;;;;;;;;;;;;5011723;28;19916;-65
2022/10/07 15:53:19;;;;;;;;;;;;;;;;;;5010987;28;20345;-64
2022/10/07 15:55:45;;;;;;;;;;;;;;;;;;5011671;28;19918;-64
2022/10/07 15:58:11;;;;;;;;;;;;;;;;;;5010917;28;19971;-63
2022/10/07 16:00:37;;;;;;;;;;;;;;;;;;5013951;28;19992;-63
2022/10/07 16:03:03;;;;;;;;;;;;;;;;;;5006858;28;19948;-63
2022/10/07 16:05:30;;;;;;;;;;;;;;;;;;5011539;28;19909;-65
2022/10/07 16:07:56;;;;;;;;;;;;;;;;;;5011510;28;19932;-60
2022/10/07 16:10:22;;;;;;;;;;;;;;;;;;5012220;28;20366;-63
2022/10/07 16:12:47;;;;;;;;;;;;;;;;;;5011147;28;19988;-63
2022/10/07 16:15:15;;;;;;;;;;;;;;;;;;5011154;28;20418;-63
2022/10/07 16:17:41;;;;;;;;;;;;;;;;;;5011417;28;19917;-62
2022/10/07 16:20:07;;;;;;;;;;;;;;;;;;5010870;28;20779;-62
2022/10/07 16:22:33;;;;;;;;;;;;;;;;;;5011407;28;19932;-62
2022/10/07 16:24:59;;;;;;;;;;;;;;;;;;5011199;28;19918;-63
2022/10/07 16:30:39;;;;;;;;;;;;;;;;;;5010965;28;20302;-65
2022/10/07 16:32:56;;;;;;;;;;;;;;;;;;5006787;28;19917;-63
2022/10/07 16:35:21;;;;;;;;;;;;;;;;;;5010098;28;19922;-62
2022/10/07 16:37:47;;;;;;;;;;;;;;;;;;5008279;28;19909;-63
2022/10/07 16:40:13;;;;;;;;;;;;;;;;;;5017761;28;19913;-63
2022/10/07 16:42:39;;;;;;;;;;;;;;;;;;5011318;28;19917;-62
2022/10/07 16:45:05;;;;;;;;;;;;;;;;;;5017117;28;20016;-65
2022/10/07 16:47:31;;;;;;;;;;;;;;;;;;5014155;28;19918;-64
2022/10/07 16:49:57;;;;;;;;;;;;;;;;;;5007540;28;19913;-64
2022/10/07 16:52:24;;;;;;;;;;;;;;;;;;5009472;28;20013;-63
2022/10/07 16:54:50;;;;;;;;;;;;;;;;;;5016295;28;19924;-63